Time;durP1;ratioP1;P1;durP2;ratioP2;P2;SDS_P1;SDS_P2;PMS_P1;PMS_P2;Temp;Humidity;BMP_temperature;BMP_pressure;BME280_temperature;BME280_humidity;BME280_pressure;Samples;Min_cycle;Max_cycle;Signal;HPM_P1;HPM_P2
2022/08/01 00:00:26;;;;;;;6.97;3.45;;;19.60;97.30;;;;;;5016413;28;20030;-80
2022/08/01 00:02:52;;;;;;;4.50;2.72;;;19.60;97.40;;;;;;5000808;28;20022;-81
2022/08/01 00:05:18;;;;;;;3.85;2.80;;;19.60;98.70;;;;;;5014633;28;20030;-80
2022/08/01 00:07:43;;;;;;;4.63;2.67;;;19.60;98.30;;;;;;5014862;28;20058;-76
2022/08/01 00:10:14;;;;;;;7.10;2.75;;;19.50;98.00;;;;;;5014757;28;20464;-81
2022/08/01 00:12:41;;;;;;;7.28;3.22;;;19.50;99.30;;;;;;5000556;28;20480;-81
2022/08/01 00:15:08;;;;;;;4.03;2.72;;;19.50;99.40;;;;;;5014779;28;20057;-80
2022/08/01 00:17:35;;;;;;;5.68;2.70;;;19.50;99.10;;;;;;5015164;28;20034;-80
2022/08/01 00:20:03;;;;;;;4.43;3.10;;;19.50;99.30;;;;;;5016660;28;20096;-80
2022/08/01 00:22:30;;;;;;;6.60;3.00;;;19.50;99.80;;;;;;5024641;28;20030;-80
2022/08/01 00:24:56;;;;;;;10.35;4.72;;;19.50;99.00;;;;;;5014424;28;20045;-80
2022/08/01 00:27:22;;;;;;;8.88;4.40;;;19.40;99.90;;;;;;5014278;28;20070;-81
2022/08/01 00:29:48;;;;;;;9.50;4.07;;;19.40;99.90;;;;;;5014514;28;20105;-80
2022/08/01 00:32:14;;;;;;;9.52;4.25;;;19.40;99.80;;;;;;5014189;28;20083;-80
2022/08/01 00:34:39;;;;;;;7.22;3.72;;;19.30;99.90;;;;;;5014605;28;20431;-81
2022/08/01 00:37:05;;;;;;;3.90;2.78;;;19.20;99.90;;;;;;5009843;28;20061;-81
2022/08/01 00:39:32;;;;;;;5.65;2.83;;;18.80;99.90;;;;;;5006479;28;20053;-81
2022/08/01 00:41:59;;;;;;;4.00;2.60;;;18.70;99.90;;;;;;5006581;28;20027;-80
2022/08/01 00:44:25;;;;;;;8.32;3.35;;;18.70;99.90;;;;;;5009365;28;20129;-81
2022/08/01 00:46:51;;;;;;;5.55;3.35;;;18.50;99.90;;;;;;5004719;28;20045;-81
2022/08/01 00:49:17;;;;;;;6.03;3.15;;;19.10;99.90;;;;;;5010740;28;20476;-79
2022/08/01 00:51:43;;;;;;;8.10;3.30;;;;;;;;;;5013285;28;20099;-81
2022/08/01 00:54:09;;;;;;;3.88;3.17;;;18.60;99.90;;;;;;5022909;28;20029;-76
2022/08/01 00:56:35;;;;;;;6.65;3.78;;;18.60;99.90;;;;;;5002534;28;20388;-81
2022/08/01 00:59:03;;;;;;;5.90;3.38;;;18.40;99.90;;;;;;5009374;28;20385;-80
2022/08/01 01:01:29;;;;;;;5.75;3.13;;;18.50;99.90;;;;;;5010911;28;20045;-79
2022/08/01 01:03:56;;;;;;;6.45;3.15;;;18.70;99.90;;;;;;5009389;28;20029;-80
2022/08/01 01:06:44;;;;;;;6.03;3.88;;;18.70;99.90;;;;;;5003564;28;20088;-80
2022/08/01 01:09:40;;;;;;;8.68;3.72;;;18.80;99.90;;;;;;5013569;28;20376;-75
2022/08/01 01:12:20;;;;;;;5.28;3.78;;;18.90;99.90;;;;;;5011345;28;20025;-74
2022/08/01 01:15:05;;;;;;;7.00;4.07;;;18.90;99.90;;;;;;5002052;28;20015;-72
2022/08/01 01:18:00;;;;;;;8.38;4.40;;;19.00;99.90;;;;;;5001806;28;20026;-77
2022/08/01 01:20:37;;;;;;;8.88;3.80;;;19.00;99.90;;;;;;5011032;28;20136;-80
2022/08/01 01:23:20;;;;;;;6.95;3.53;;;19.00;99.90;;;;;;5012735;28;20127;-79
2022/08/01 01:26:12;;;;;;;9.05;4.35;;;19.10;99.90;;;;;;5012519;28;20049;-80
2022/08/01 01:28:56;;;;;;;5.68;3.90;;;19.10;99.90;;;;;;5010959;28;20030;-80
2022/08/01 01:31:24;;;;;;;6.07;3.60;;;19.10;99.90;;;;;;5011363;28;20041;-80
2022/08/01 01:33:53;;;;;;;6.88;3.55;;;19.10;99.90;;;;;;5009629;28;20107;-80
2022/08/01 01:36:21;;;;;;;9.68;4.68;;;19.10;99.90;;;;;;5008296;28;20127;-77
2022/08/01 01:38:48;;;;;;;6.63;4.53;;;19.00;99.90;;;;;;4999576;28;20037;-79
2022/08/01 01:41:17;;;;;;;5.97;3.92;;;19.00;99.90;;;;;;5012711;28;20055;-79
2022/08/01 01:43:44;;;;;;;6.95;3.85;;;19.00;99.90;;;;;;5010546;28;20104;-80
2022/08/01 01:46:12;;;;;;;6.68;3.80;;;19.00;99.90;;;;;;4999885;28;20042;-81
2022/08/01 01:48:39;;;;;;;10.55;5.05;;;19.10;99.90;;;;;;5012528;28;20479;-79
2022/08/01 01:51:06;;;;;;;9.50;3.80;;;19.10;99.90;;;;;;5012340;28;20058;-80
2022/08/01 01:53:35;;;;;;;9.40;4.20;;;19.10;99.90;;;;;;5012106;28;20075;-80
2022/08/01 01:56:02;;;;;;;7.85;3.63;;;19.10;99.90;;;;;;5002164;28;20034;-79
2022/08/01 01:58:32;;;;;;;8.65;3.95;;;19.10;99.90;;;;;;5008240;28;20052;-79
2022/08/01 02:01:01;;;;;;;5.95;3.90;;;19.10;99.90;;;;;;5000296;28;20484;-79
2022/08/01 02:03:29;;;;;;;5.15;3.78;;;19.00;99.90;;;;;;5012148;28;20120;-79
2022/08/01 02:05:56;;;;;;;9.27;4.07;;;19.00;99.90;;;;;;5007752;28;20026;-79
2022/08/01 02:08:24;;;;;;;11.20;4.65;;;18.90;99.90;;;;;;5007273;28;20061;-80
2022/08/01 02:13:40;;;;;;;7.22;4.57;;;18.80;99.90;;;;;;5008695;28;20033;-75
2022/08/01 02:16:06;;;;;;;7.65;4.30;;;18.70;99.90;;;;;;5002623;28;20440;-80
2022/08/01 02:18:33;;;;;;;7.03;3.65;;;18.70;99.90;;;;;;5012574;28;20451;-79
2022/08/01 02:21:00;;;;;;;6.60;3.72;;;18.60;99.90;;;;;;5016170;28;20084;-79
2022/08/01 02:23:31;;;;;;;6.88;4.10;;;18.50;99.90;;;;;;5009103;28;20022;-76
2022/08/01 02:25:59;;;;;;;5.05;3.67;;;18.50;99.90;;;;;;5016896;28;20492;-74
2022/08/01 02:28:37;;;;;;;7.75;4.10;;;18.40;99.90;;;;;;5000024;28;20039;-77
2022/08/01 02:31:09;;;;;;;6.18;4.00;;;18.30;99.90;;;;;;5009881;28;20022;-80
2022/08/01 02:33:41;;;;;;;8.20;4.30;;;18.30;99.90;;;;;;5003620;28;20385;-78
2022/08/01 02:36:07;;;;;;;10.90;4.38;;;18.20;99.90;;;;;;5000623;28;20424;-80
2022/08/01 02:38:42;;;;;;;7.82;4.10;;;18.30;99.90;;;;;;5000133;28;20041;-80
2022/08/01 02:41:09;;;;;;;7.40;4.85;;;;;;;;;;5015969;28;20038;-80
2022/08/01 02:43:38;;;;;;;8.63;4.90;;;;;;;;;;5011927;28;20050;-80
2022/08/01 02:46:05;;;;;;;11.65;4.95;;;;;;;;;;5003191;28;20045;-80
2022/08/01 02:48:34;;;;;;;7.25;4.53;;;17.80;99.90;;;;;;5005737;28;20041;-80
2022/08/01 02:51:03;;;;;;;14.13;4.95;;;17.70;99.90;;;;;;5011594;28;20026;-80
2022/08/01 02:53:36;;;;;;;7.93;3.92;;;17.80;99.90;;;;;;5009620;28;20032;-79
2022/08/01 02:56:08;;;;;;;6.13;4.28;;;17.90;99.90;;;;;;5015646;28;20034;-80
2022/08/01 02:58:36;;;;;;;9.38;4.32;;;17.90;99.90;;;;;;5009221;28;20652;-80
2022/08/01 03:01:05;;;;;;;7.40;4.00;;;18.00;99.90;;;;;;5012468;28;20026;-80
2022/08/01 03:03:33;;;;;;;8.18;4.47;;;17.90;99.90;;;;;;5015008;28;20025;-79
2022/08/01 03:06:01;;;;;;;8.23;4.63;;;17.90;99.90;;;;;;5011455;28;20042;-80
2022/08/01 03:08:30;;;;;;;9.63;4.93;;;17.90;99.90;;;;;;5009046;28;20030;-80
2022/08/01 03:10:58;;;;;;;5.55;4.25;;;17.80;99.90;;;;;;5009513;28;20100;-81
2022/08/01 03:13:27;;;;;;;9.23;4.60;;;17.90;99.90;;;;;;5013519;28;20036;-80
2022/08/01 03:15:53;;;;;;;7.18;4.00;;;17.90;99.90;;;;;;5000040;28;20033;-81
2022/08/01 03:18:21;;;;;;;8.55;4.50;;;17.90;99.90;;;;;;5007518;28;20022;-80
2022/08/01 03:20:48;;;;;;;8.35;4.85;;;17.90;99.90;;;;;;5014941;28;20041;-77
2022/08/01 03:23:16;;;;;;;9.20;4.68;;;17.90;99.90;;;;;;5007450;28;20476;-82
2022/08/01 03:25:45;;;;;;;9.48;4.78;;;17.80;99.90;;;;;;5010582;28;20439;-78
2022/08/01 03:28:13;;;;;;;7.10;4.30;;;17.90;99.90;;;;;;5014208;28;20375;-79
2022/08/01 03:30:41;;;;;;;15.70;5.28;;;17.70;99.90;;;;;;5014439;28;20022;-79
2022/08/01 03:33:07;;;;;;;6.53;4.05;;;17.80;99.90;;;;;;5014477;28;20408;-80
2022/08/01 03:35:39;;;;;;;6.80;4.38;;;17.80;99.90;;;;;;5013171;28;20033;-77
2022/08/01 03:38:10;;;;;;;10.18;4.70;;;17.70;99.90;;;;;;5001189;28;20026;-79
2022/08/01 03:40:43;;;;;;;7.47;4.22;;;17.70;99.90;;;;;;5009706;28;20022;-79
2022/08/01 03:43:32;;;;;;;9.05;4.55;;;17.80;99.90;;;;;;5014218;28;20046;-79
2022/08/01 03:46:07;;;;;;;9.38;4.90;;;18.20;99.90;;;;;;5010680;28;20622;-78
2022/08/01 03:48:36;;;;;;;7.88;4.60;;;18.60;99.90;;;;;;5007432;28;20101;-79
2022/08/01 03:51:03;;;;;;;10.45;4.85;;;19.20;99.90;;;;;;5009224;28;20029;-80
2022/08/01 03:53:31;;;;;;;8.77;4.70;;;19.70;99.90;;;;;;5009407;28;20022;-80
2022/08/01 03:56:01;;;;;;;14.55;4.45;;;20.10;99.90;;;;;;5012196;28;20061;-79
2022/08/01 03:58:28;;;;;;;12.40;5.13;;;20.70;99.90;;;;;;5000605;28;20085;-79
2022/08/01 04:00:55;;;;;;;10.00;4.47;;;21.10;98.80;;;;;;5006043;28;20061;-79
2022/08/01 04:03:22;;;;;;;9.45;4.63;;;21.60;97.40;;;;;;5008423;28;20022;-79
2022/08/01 04:05:48;;;;;;;9.57;4.35;;;22.10;96.40;;;;;;5013391;28;20034;-80
2022/08/01 04:08:14;;;;;;;10.10;5.22;;;;;;;;;;5003349;28;20052;-72
2022/08/01 04:10:40;;;;;;;6.35;4.35;;;22.80;99.90;;;;;;5012222;28;20030;-71
2022/08/01 04:13:06;;;;;;;10.77;5.20;;;22.90;99.90;;;;;;5008733;28;20049;-78
2022/08/01 04:15:31;;;;;;;5.22;4.15;;;23.40;99.90;;;;;;5008895;28;20027;-75
2022/08/01 04:17:57;;;;;;;8.40;5.07;;;23.50;90.90;;;;;;5009176;28;20056;-81
2022/08/01 04:20:23;;;;;;;6.05;4.50;;;23.80;86.10;;;;;;5013155;28;20057;-82
2022/08/01 04:22:49;;;;;;;10.05;4.25;;;24.80;83.40;;;;;;5011354;28;20441;-73
2022/08/01 04:25:27;;;;;;;6.40;4.35;;;24.50;81.30;;;;;;5009218;28;20041;-80
2022/08/01 04:27:55;;;;;;;11.48;4.63;;;25.00;80.60;;;;;;5011601;28;20474;-80
2022/08/01 04:30:29;;;;;;;9.13;4.75;;;24.90;79.30;;;;;;5005041;28;20030;-80
2022/08/01 04:32:58;;;;;;;10.45;4.07;;;25.60;76.50;;;;;;5013594;28;20034;-79
2022/08/01 04:35:26;;;;;;;7.45;3.58;;;25.60;74.80;;;;;;5013480;28;20026;-80
2022/08/01 04:37:54;;;;;;;5.55;3.78;;;25.90;76.10;;;;;;5004276;28;20037;-74
2022/08/01 04:40:21;;;;;;;8.80;4.68;;;26.30;76.20;;;;;;5004378;28;20432;-63
2022/08/01 04:42:48;;;;;;;8.02;3.90;;;26.70;74.00;;;;;;5007488;28;20037;-71
2022/08/01 04:45:15;;;;;;;7.25;4.15;;;27.70;74.10;;;;;;5002844;28;20042;-74
2022/08/01 04:47:43;;;;;;;8.40;4.15;;;;;;;;;;5014805;28;20048;-72
2022/08/01 04:50:10;;;;;;;16.58;4.53;;;27.50;73.20;;;;;;5004891;28;20050;-70
2022/08/01 04:52:37;;;;;;;14.00;4.72;;;27.40;72.50;;;;;;5007769;28;20022;-71
2022/08/01 04:55:06;;;;;;;11.90;4.38;;;26.60;72.90;;;;;;5010576;28;20022;-73
2022/08/01 04:57:44;;;;;;;8.55;4.75;;;26.30;72.50;;;;;;5007026;28;20014;-68
2022/08/01 05:00:11;;;;;;;8.52;4.50;;;26.30;73.20;;;;;;5011049;28;20038;-70
2022/08/01 05:02:37;;;;;;;9.85;4.13;;;26.60;73.30;;;;;;5011596;28;20025;-72
2022/08/01 05:05:05;;;;;;;12.73;4.00;;;26.50;74.60;;;;;;5011553;28;20034;-73
2022/08/01 05:07:33;;;;;;;8.57;3.83;;;26.10;72.70;;;;;;5012527;28;20026;-72
2022/08/01 05:09:58;;;;;;;13.02;4.43;;;25.40;73.80;;;;;;5013272;28;20061;-73
2022/08/01 05:12:24;;;;;;;13.57;4.38;;;24.50;78.90;;;;;;5021262;28;20072;-73
2022/08/01 05:14:50;;;;;;;14.88;4.28;;;23.70;82.50;;;;;;5013201;28;20364;-73
2022/08/01 05:17:16;;;;;;;8.57;4.05;;;23.80;83.90;;;;;;5014269;28;20034;-74
2022/08/01 05:19:42;;;;;;;7.75;3.38;;;23.70;82.90;;;;;;5009556;28;20018;-73
2022/08/01 05:22:09;;;;;;;8.45;3.45;;;23.70;83.20;;;;;;5010682;28;20053;-73
2022/08/01 05:24:37;;;;;;;8.98;3.72;;;23.30;85.00;;;;;;5009399;28;20014;-71
2022/08/01 05:27:04;;;;;;;6.60;3.78;;;23.00;87.40;;;;;;5002174;28;20056;-73
2022/08/01 05:29:31;;;;;;;8.55;3.88;;;23.10;88.80;;;;;;5012837;28;20387;-73
2022/08/01 05:31:57;;;;;;;7.05;3.53;;;23.50;90.10;;;;;;5012775;28;20414;-73
2022/08/01 05:34:23;;;;;;;7.18;3.95;;;23.60;86.60;;;;;;5012854;28;20112;-73
2022/08/01 05:36:49;;;;;;;5.70;4.18;;;23.50;84.50;;;;;;5012614;28;20108;-73
2022/08/01 05:39:15;;;;;;;6.50;3.70;;;23.70;86.10;;;;;;5012390;28;20030;-74
2022/08/01 05:41:41;;;;;;;7.63;3.75;;;23.70;86.60;;;;;;5012599;28;20087;-74
2022/08/01 05:44:07;;;;;;;7.95;3.58;;;23.70;86.30;;;;;;5027262;28;20208;-74
2022/08/01 05:46:33;;;;;;;5.70;3.40;;;23.30;88.00;;;;;;5012449;28;20125;-73
2022/08/01 05:49:00;;;;;;;6.80;3.95;;;23.20;88.00;;;;;;5012194;28;20026;-74
2022/08/01 05:51:26;;;;;;;10.65;3.88;;;23.40;88.20;;;;;;4999031;28;20030;-73
2022/08/01 05:53:53;;;;;;;6.15;3.55;;;23.40;87.70;;;;;;5012150;28;20069;-73
2022/08/01 05:56:20;;;;;;;10.32;4.03;;;23.40;88.50;;;;;;5012365;28;20029;-73
2022/08/01 05:58:46;;;;;;;8.27;4.25;;;23.50;87.40;;;;;;5012940;28;20349;-72
2022/08/01 06:01:12;;;;;;;5.18;3.60;;;23.60;88.40;;;;;;5012346;28;20157;-73
2022/08/01 06:03:38;;;;;;;6.40;3.80;;;23.70;85.20;;;;;;5012350;28;20483;-73
2022/08/01 06:06:04;;;;;;;7.40;3.58;;;23.90;88.10;;;;;;5011944;28;20036;-63
2022/08/01 06:08:30;;;;;;;7.28;3.58;;;24.10;86.70;;;;;;5012247;28;20121;-62
2022/08/01 06:10:57;;;;;;;5.93;3.28;;;24.30;88.50;;;;;;5012395;28;20045;-63
2022/08/01 06:13:23;;;;;;;6.97;3.60;;;24.00;87.60;;;;;;5012432;28;20117;-61
2022/08/01 06:15:49;;;;;;;7.35;3.63;;;24.00;85.60;;;;;;5012492;28;20428;-62
2022/08/01 06:18:15;;;;;;;7.50;3.55;;;24.00;83.50;;;;;;5012288;28;20084;-62
2022/08/01 06:20:41;;;;;;;7.72;3.58;;;24.10;85.50;;;;;;5012054;28;20018;-70
2022/08/01 06:23:08;;;;;;;5.93;3.60;;;24.00;84.00;;;;;;5027747;28;20037;-73
2022/08/01 06:25:34;;;;;;;9.10;4.28;;;24.20;88.30;;;;;;5012154;28;20372;-73
2022/08/01 06:28:00;;;;;;;9.20;3.78;;;24.50;86.50;;;;;;5012110;28;20044;-73
2022/08/01 06:30:26;;;;;;;8.50;4.15;;;24.70;84.90;;;;;;5011909;28;20029;-71
2022/08/01 06:32:55;;;;;;;6.47;4.20;;;24.70;84.50;;;;;;5012345;28;20113;-74
2022/08/01 06:35:21;;;;;;;5.68;3.60;;;24.80;84.10;;;;;;5012272;28;20022;-62
2022/08/01 06:37:48;;;;;;;6.68;3.92;;;24.70;86.00;;;;;;5011826;28;20445;-62
2022/08/01 06:40:14;;;;;;;6.00;3.97;;;24.60;85.10;;;;;;5011922;28;20032;-71
2022/08/01 06:42:40;;;;;;;7.03;3.90;;;24.70;84.00;;;;;;5011529;28;20113;-72
2022/08/01 06:45:09;;;;;;;7.68;3.67;;;24.90;83.90;;;;;;5011740;28;20046;-73
2022/08/01 06:47:35;;;;;;;7.38;3.70;;;25.00;80.90;;;;;;5011955;28;20029;-73
2022/08/01 06:50:02;;;;;;;6.07;3.65;;;25.10;82.70;;;;;;5012154;28;20376;-72
2022/08/01 06:52:28;;;;;;;6.55;4.03;;;25.10;81.80;;;;;;5012184;28;20032;-69
2022/08/01 06:54:54;;;;;;;6.57;4.38;;;25.00;80.60;;;;;;5012335;28;20018;-71
2022/08/01 06:57:20;;;;;;;7.38;4.15;;;25.20;81.50;;;;;;5011891;28;20392;-73
2022/08/01 06:59:46;;;;;;;9.00;3.80;;;25.30;82.40;;;;;;5011906;28;20097;-74
2022/08/01 07:02:12;;;;;;;8.05;4.25;;;25.50;81.90;;;;;;5011814;28;20026;-71
2022/08/01 07:04:37;;;;;;;6.53;3.65;;;25.80;82.00;;;;;;5013052;28;20030;-70
2022/08/01 07:07:03;;;;;;;6.15;4.25;;;25.60;81.30;;;;;;5014731;28;20432;-73
2022/08/01 07:09:29;;;;;;;6.40;4.30;;;25.90;80.40;;;;;;5014600;28;20415;-72
2022/08/01 07:11:55;;;;;;;7.15;3.80;;;26.30;80.90;;;;;;5014624;28;20033;-73
2022/08/01 07:14:22;;;;;;;7.55;3.63;;;26.20;78.30;;;;;;5014952;28;20032;-74
2022/08/01 07:16:48;;;;;;;4.75;3.45;;;;;;;;;;5014882;28;20567;-72
2022/08/01 07:19:15;;;;;;;6.72;3.88;;;26.40;76.90;;;;;;5014791;28;20026;-73
2022/08/01 07:21:41;;;;;;;5.20;3.35;;;;;;;;;;5014249;28;20033;-72
2022/08/01 07:24:12;;;;;;;5.13;3.15;;;26.50;77.80;;;;;;5000839;28;20108;-72
2022/08/01 07:26:39;;;;;;;5.22;3.28;;;26.60;76.30;;;;;;5014579;28;20108;-73
2022/08/01 07:29:04;;;;;;;6.38;3.70;;;26.90;88.10;;;;;;5014709;28;20581;-73
2022/08/01 07:31:30;;;;;;;6.90;3.80;;;27.10;77.50;;;;;;5014838;28;20109;-73
2022/08/01 07:33:56;;;;;;;5.45;3.67;;;27.00;76.40;;;;;;5014761;28;20376;-74
2022/08/01 07:36:22;;;;;;;4.95;3.88;;;26.70;76.30;;;;;;5014532;28;20050;-71
2022/08/01 07:38:48;;;;;;;6.20;3.58;;;26.80;78.10;;;;;;5014428;28;20049;-72
2022/08/01 07:41:14;;;;;;;3.92;3.40;;;27.00;75.90;;;;;;5014695;28;20044;-74
2022/08/01 07:43:40;;;;;;;7.65;3.70;;;27.20;74.50;;;;;;5009524;28;20787;-71
2022/08/01 07:46:06;;;;;;;8.82;3.78;;;27.20;87.40;;;;;;4999508;28;20097;-74
2022/08/01 07:48:32;;;;;;;8.35;3.78;;;27.30;88.40;;;;;;5008798;28;20026;-74
2022/08/01 07:50:58;;;;;;;6.10;3.30;;;27.50;85.60;;;;;;5012004;28;20040;-74
2022/08/01 07:53:24;;;;;;;4.57;2.83;;;27.50;73.90;;;;;;5011365;28;20097;-74
2022/08/01 07:55:50;;;;;;;6.30;3.47;;;27.40;82.00;;;;;;5013376;28;20109;-73
2022/08/01 07:58:17;;;;;;;5.05;3.40;;;;;;;;;;5014039;28;20068;-73
2022/08/01 08:00:43;;;;;;;5.80;3.15;;;28.10;86.70;;;;;;5014063;28;20073;-71
2022/08/01 08:03:09;;;;;;;5.03;3.55;;;27.60;85.20;;;;;;5009291;28;20033;-73
2022/08/01 08:05:36;;;;;;;6.00;2.83;;;27.40;80.70;;;;;;5004751;28;20026;-73
2022/08/01 08:08:06;;;;;;;5.43;3.47;;;27.80;77.00;;;;;;5013797;28;20044;-73
2022/08/01 08:10:32;;;;;;;4.72;2.95;;;27.70;78.20;;;;;;5026049;28;20042;-73
2022/08/01 08:12:58;;;;;;;6.70;3.60;;;27.50;86.60;;;;;;5010538;28;20022;-74
2022/08/01 08:15:24;;;;;;;4.00;3.10;;;27.80;83.20;;;;;;5003317;28;20037;-73
2022/08/01 08:17:50;;;;;;;4.65;3.10;;;;;;;;;;5013884;28;20037;-72
2022/08/01 08:20:16;;;;;;;6.50;3.53;;;28.10;83.10;;;;;;5014194;28;20084;-73
2022/08/01 08:22:42;;;;;;;4.90;3.15;;;28.50;93.00;;;;;;5013887;28;20449;-68
2022/08/01 08:25:08;;;;;;;12.60;3.55;;;28.50;92.00;;;;;;5014095;28;20388;-70
2022/08/01 08:27:35;;;;;;;5.88;3.45;;;28.40;89.50;;;;;;5013720;28;20026;-71
2022/08/01 08:30:02;;;;;;;4.28;2.80;;;28.30;92.40;;;;;;5013397;28;20022;-66
2022/08/01 08:32:28;;;;;;;5.65;3.13;;;28.60;91.40;;;;;;5013613;28;20072;-73
2022/08/01 08:34:53;;;;;;;6.15;3.75;;;28.60;88.10;;;;;;5013035;28;20041;-75
2022/08/01 08:37:19;;;;;;;4.93;2.85;;;28.90;86.50;;;;;;5013208;28;20121;-74
2022/08/01 08:39:45;;;;;;;4.32;3.63;;;29.10;92.50;;;;;;5013688;28;20091;-73
2022/08/01 08:42:11;;;;;;;4.97;3.45;;;29.00;84.10;;;;;;5013029;28;20053;-73
2022/08/01 08:44:39;;;;;;;4.32;2.78;;;28.80;81.50;;;;;;5029068;28;20045;-71
2022/08/01 08:47:07;;;;;;;6.93;3.15;;;28.90;83.40;;;;;;5013480;28;20050;-75
2022/08/01 08:49:35;;;;;;;6.80;3.38;;;29.00;75.20;;;;;;5013097;28;20672;-74
2022/08/01 08:52:03;;;;;;;6.40;2.97;;;29.20;95.20;;;;;;5019495;28;20025;-74
2022/08/01 08:54:32;;;;;;;4.05;2.58;;;29.20;90.10;;;;;;5021501;28;20022;-71
2022/08/01 08:57:01;;;;;;;5.10;3.22;;;28.90;95.40;;;;;;5012204;28;20025;-73
2022/08/01 08:59:28;;;;;;;8.82;3.25;;;29.00;83.70;;;;;;5025185;28;20055;-74
2022/08/01 09:01:54;;;;;;;4.60;2.80;;;;;;;;;;5012395;28;20022;-75
2022/08/01 09:04:24;;;;;;;5.53;3.38;;;29.50;88.40;;;;;;5013177;28;20109;-73
2022/08/01 09:06:50;;;;;;;5.35;2.92;;;29.30;93.70;;;;;;5012370;28;20394;-72
2022/08/01 09:09:16;;;;;;;7.15;2.90;;;29.30;93.00;;;;;;5017997;28;20026;-73
2022/08/01 09:11:42;;;;;;;4.43;2.58;;;29.50;94.00;;;;;;5012968;28;20026;-76
2022/08/01 09:14:13;;;;;;;3.75;2.38;;;29.60;83.50;;;;;;5004077;28;20663;-72
2022/08/01 09:16:44;;;;;;;4.68;3.35;;;29.60;80.20;;;;;;5009441;28;20067;-72
2022/08/01 09:19:18;;;;;;;4.95;2.92;;;;;;;;;;5012449;28;20502;-72
2022/08/01 09:22:01;;;;;;;5.10;2.92;;;;;;;;;;5012681;28;20463;-74
2022/08/01 09:24:28;;;;;;;3.95;2.83;;;30.00;84.70;;;;;;5005127;28;20030;-73
2022/08/01 09:26:55;;;;;;;4.68;3.13;;;30.10;93.10;;;;;;5005960;28;20111;-73
2022/08/01 09:29:23;;;;;;;3.85;2.72;;;29.90;99.30;;;;;;5011782;28;20079;-73
2022/08/01 09:31:50;;;;;;;5.07;2.80;;;29.80;93.70;;;;;;5012670;28;20026;-69
2022/08/01 09:34:27;;;;;;;2.70;2.30;;;29.80;94.80;;;;;;5012363;28;20018;-74
2022/08/01 09:36:56;;;;;;;3.10;2.65;;;30.00;99.30;;;;;;4998687;28;20022;-76
2022/08/01 09:39:33;;;;;;;3.55;2.83;;;;;;;;;;5012246;28;20029;-76
2022/08/01 09:42:01;;;;;;;4.25;2.85;;;;;;;;;;5012568;28;20521;-76
2022/08/01 09:44:38;;;;;;;7.63;3.15;;;;;;;;;;5012174;28;20049;-76
2022/08/01 09:47:05;;;;;;;3.20;2.60;;;30.10;94.60;;;;;;5012048;28;20049;-75
2022/08/01 09:49:34;;;;;;;3.80;2.70;;;30.00;94.80;;;;;;5012156;28;20025;-73
2022/08/01 09:52:19;;;;;;;2.92;2.50;;;30.20;96.40;;;;;;5012082;28;20084;-75
2022/08/01 09:54:59;;;;;;;3.90;3.20;;;;;;;;;;4999092;28;20022;-74
2022/08/01 09:57:26;;;;;;;4.05;2.90;;;;;;;;;;5011929;28;20101;-74
2022/08/01 09:59:54;;;;;;;5.13;2.97;;;30.10;83.40;;;;;;5012310;28;20490;-71
2022/08/01 10:02:36;;;;;;;3.83;3.22;;;30.20;81.80;;;;;;5012324;28;20625;-74
2022/08/01 10:05:04;;;;;;;5.65;2.92;;;;;;;;;;4998479;28;20056;-73
2022/08/01 10:07:30;;;;;;;4.35;3.20;;;;;;;;;;5011941;28;20026;-75
2022/08/01 10:10:12;;;;;;;3.35;2.63;;;30.50;94.90;;;;;;5012308;28;20033;-74
2022/08/01 10:12:39;;;;;;;;;;;30.10;95.20;;;;;;5010489;28;20033;-72
2022/08/01 10:15:06;;;;;;;9.63;2.75;;;30.00;98.70;;;;;;5010193;28;19944;-75
2022/08/01 10:17:33;;;;;;;3.38;2.72;;;29.90;99.60;;;;;;5011743;28;20022;-73
2022/08/01 10:20:02;;;;;;;3.45;2.90;;;30.10;98.80;;;;;;5011310;28;20080;-75
2022/08/01 10:22:30;;;;;;;5.45;2.83;;;30.10;99.90;;;;;;5026079;28;20053;-76
2022/08/01 10:25:00;;;;;;;4.10;2.88;;;30.00;99.90;;;;;;5011769;28;20025;-73
2022/08/01 10:27:28;;;;;;;5.68;3.50;;;30.10;99.90;;;;;;5012235;28;20426;-76
2022/08/01 10:30:03;;;;;;;5.68;2.60;;;;;;;;;;5011897;28;20022;-73
2022/08/01 10:32:34;;;;;;;5.07;2.97;;;;;;;;;;5012053;28;20072;-75
2022/08/01 10:35:01;;;;;;;2.63;2.33;;;30.90;86.00;;;;;;5012015;28;20080;-75
2022/08/01 10:37:28;;;;;;;5.30;3.38;;;;;;;;;;5012176;28;20419;-74
2022/08/01 10:39:55;;;;;;;3.45;2.53;;;30.60;90.10;;;;;;5015308;28;20109;-75
2022/08/01 10:42:21;;;;;;;4.55;2.50;;;30.80;90.60;;;;;;5015511;28;20022;-74
2022/08/01 10:44:48;;;;;;;4.57;2.90;;;30.70;81.00;;;;;;5015332;28;20038;-75
2022/08/01 10:47:23;;;;;;;4.95;2.80;;;30.50;79.70;;;;;;5006839;28;20096;-74
2022/08/01 10:49:58;;;;;;;4.82;3.30;;;30.20;79.40;;;;;;5008512;28;20023;-73
2022/08/01 10:52:24;;;;;;;3.92;3.05;;;29.90;79.40;;;;;;5007180;28;20037;-74
2022/08/01 10:55:05;;;;;;;6.25;2.97;;;30.00;78.90;;;;;;5004895;28;20018;-74
2022/08/01 10:57:43;;;;;;;6.63;2.75;;;30.30;83.10;;;;;;5012466;28;20376;-74
2022/08/01 11:00:16;;;;;;;3.38;2.55;;;30.50;86.90;;;;;;5003096;28;20053;-75
2022/08/01 11:03:03;;;;;;;5.18;2.90;;;30.90;74.00;;;;;;5015171;28;20025;-75
2022/08/01 11:05:34;;;;;;;5.85;3.03;;;30.90;78.00;;;;;;5015355;28;20033;-75
2022/08/01 11:08:03;;;;;;;;;;;31.00;81.20;;;;;;5015473;28;20037;-73
2022/08/01 11:10:40;;;;;;;3.90;2.70;;;;;;;;;;5014965;28;19905;-74
2022/08/01 11:13:11;;;;;;;5.53;2.55;;;;;;;;;;5014916;28;20017;-73
2022/08/01 11:15:40;;;;;;;5.32;2.63;;;30.70;78.50;;;;;;5015153;28;20044;-75
2022/08/01 11:18:50;;;;;;;2.90;2.55;;;30.70;77.60;;;;;;5014860;28;20038;-72
2022/08/01 11:21:16;;;;;;;3.22;2.72;;;31.00;78.50;;;;;;5012779;28;20060;-74
2022/08/01 11:23:51;;;;;;;2.25;2.05;;;31.10;72.50;;;;;;5012261;28;20038;-73
2022/08/01 11:26:17;;;;;;;5.20;3.05;;;31.20;74.50;;;;;;5012607;28;20073;-74
2022/08/01 11:28:45;;;;;;;4.10;2.45;;;31.20;78.60;;;;;;5012383;28;20038;-74
2022/08/01 11:31:15;;;;;;;2.40;2.20;;;31.20;71.80;;;;;;5010605;28;20134;-73
2022/08/01 11:33:41;;;;;;;3.22;2.08;;;30.80;79.80;;;;;;5010706;28;20034;-74
2022/08/01 11:36:10;;;;;;;5.20;2.70;;;30.70;80.50;;;;;;5011000;28;20045;-75
2022/08/01 11:38:41;;;;;;;6.70;2.85;;;30.80;76.70;;;;;;5028574;28;20068;-75
2022/08/01 11:41:13;;;;;;;3.90;2.50;;;30.80;84.30;;;;;;5012200;28;20522;-74
2022/08/01 11:44:02;;;;;;;4.65;2.88;;;31.10;79.30;;;;;;5012188;28;20054;-72
2022/08/01 11:46:49;;;;;;;4.30;2.47;;;31.10;78.30;;;;;;5012212;28;20054;-73
2022/08/01 11:49:37;;;;;;;4.93;2.67;;;31.20;74.40;;;;;;5011401;28;20045;-73
2022/08/01 11:52:06;;;;;;;6.03;2.63;;;31.30;80.60;;;;;;5012515;28;20049;-74
2022/08/01 11:54:35;;;;;;;5.72;2.67;;;30.90;74.80;;;;;;5009791;28;20041;-73
2022/08/01 11:57:08;;;;;;;4.68;2.55;;;31.10;73.20;;;;;;5014385;28;20053;-73
2022/08/01 11:59:53;;;;;;;4.47;2.40;;;31.00;80.40;;;;;;5016010;28;20112;-73
2022/08/01 12:02:22;;;;;;;3.90;2.40;;;31.40;78.10;;;;;;5000267;28;20027;-75
2022/08/01 12:04:53;;;;;;;4.65;2.60;;;31.40;82.90;;;;;;5014522;28;20026;-71
2022/08/01 12:07:20;;;;;;;3.53;2.47;;;30.90;78.20;;;;;;5019747;28;20069;-74
2022/08/01 12:09:46;;;;;;;3.80;2.42;;;31.10;78.80;;;;;;5018037;28;20025;-73
2022/08/01 12:12:16;;;;;;;3.10;2.25;;;31.40;85.80;;;;;;4999998;28;20035;-74
2022/08/01 12:14:44;;;;;;;3.67;2.58;;;31.10;85.80;;;;;;5017805;28;20113;-73
2022/08/01 12:17:10;;;;;;;4.32;2.83;;;31.30;84.10;;;;;;4997109;28;20109;-73
2022/08/01 12:19:36;;;;;;;4.30;2.42;;;31.10;83.00;;;;;;5013975;28;20095;-74
2022/08/01 12:22:13;;;;;;;4.50;2.78;;;31.20;78.80;;;;;;5018292;28;20036;-73
2022/08/01 12:24:41;;;;;;;2.88;2.22;;;31.00;83.90;;;;;;5013626;28;20113;-74
2022/08/01 12:27:09;;;;;;;3.20;2.63;;;30.80;74.70;;;;;;5011352;28;20030;-74
2022/08/01 12:29:41;;;;;;;5.38;2.63;;;30.40;78.60;;;;;;5013309;28;20125;-73
2022/08/01 12:32:32;;;;;;;7.78;2.83;;;30.40;79.80;;;;;;4999698;28;20169;-73
2022/08/01 12:35:10;;;;;;;7.25;2.75;;;30.40;78.10;;;;;;5012631;28;20026;-72
2022/08/01 12:37:37;;;;;;;6.25;2.42;;;30.40;78.40;;;;;;5012950;28;20025;-72
2022/08/01 12:40:19;;;;;;;5.55;2.58;;;30.20;78.30;;;;;;5013325;28;20022;-72
2022/08/01 12:42:46;;;;;;;;;;;29.90;78.10;;;;;;5013609;28;20037;-74
2022/08/01 12:45:23;;;;;;;3.58;2.80;;;29.80;83.50;;;;;;5013312;28;19925;-74
2022/08/01 12:47:50;;;;;;;8.57;3.10;;;29.70;82.70;;;;;;5013239;28;20042;-73
2022/08/01 12:50:19;;;;;;;3.65;2.60;;;30.00;83.60;;;;;;5013169;28;20022;-71
2022/08/01 12:52:46;;;;;;;4.97;3.05;;;30.30;83.80;;;;;;5013185;28;20143;-73
2022/08/01 12:55:20;;;;;;;4.93;3.65;;;30.30;83.80;;;;;;5013121;28;20101;-75
2022/08/01 12:57:50;;;;;;;5.68;2.90;;;30.40;89.30;;;;;;5013014;28;20393;-74
2022/08/01 13:00:23;;;;;;;4.28;2.60;;;30.50;84.00;;;;;;5013022;28;20017;-71
2022/08/01 13:03:00;;;;;;;5.03;3.08;;;30.60;80.00;;;;;;5011875;28;20064;-74
2022/08/01 13:05:26;;;;;;;5.80;2.75;;;31.00;78.30;;;;;;5012367;28;20032;-76
2022/08/01 13:07:52;;;;;;;5.22;3.15;;;30.90;74.80;;;;;;5011833;28;20026;-63